Station: Brisbane Airport  

  Atmospheric Gas Attenuation - ITU Rec 676-11   ----------------- dB/100km -----------------
Date Time Temp RH % AH g/m3 Dew Point Wind Direction Speed kph Gust kph Barometer mB Rainfall Since 9am 24GHz 47GHz 76GHz 122GHz 134GHz 241GHz
08/05 12:40 21.1 21 3.87 -2 9 11 1018.6 0 9.4 17.7 20.8 53.7 38.0 127.3
08/05 12:30 21 23 4.21 -0.9 13 19 1018.6 0 10.1 18.1 21.9 56.5 41.5 139.6
08/05 12:20 20.4 24 4.25 -0.8 13 13 1018.9 0 10.2 18.3 22.2 57.3 42.2 142.0
08/05 12:10 19.9 22 3.78 -2.4 6 7 1019.2 0 9.2 17.8 20.8 53.8 37.7 126.0
08/05 12:00 20.1 24 4.17 -1.1 13 19 1019.2 0 10.0 18.2 22.0 56.8 41.6 139.7
08/05 11:50 19.9 22 3.78 -2.4 11 15 1019.5 0 9.2 17.8 20.9 53.8 37.7 126.0
08/05 11:40 19.8 23 3.93 -1.9 7 9 1019.7 0 9.5 18.0 21.3 55.1 39.3 131.6
08/05 11:30 19.6 23 3.88 -2.1 15 19 1019.9 0 9.4 18.0 21.3 54.8 38.9 130.1
08/05 11:20 19.2 23 3.79 -2.4 13 15 1020 0 9.3 18.0 21.1 54.4 38.2 127.5
08/05 11:10 19.5 26 4.36 -0.5 13 17 1020 0 10.4 18.6 22.8 58.9 43.9 147.7
08/05 11:00 18.6 21 3.34 -4.1 13 19 1020.3 0 8.3 17.5 19.9 51.1 33.9 112.3
08/05 10:50 19 21 3.42 -3.8 11 13 1020.3 0 8.5 17.5 20.0 51.5 34.5 114.6
08/05 10:40 18.9 23 3.73 -2.7 11 13 1020.5 0 9.1 18.0 21.0 54.1 37.7 125.8
08/05 10:30 18.7 25 4 -1.7 15 17 1020.7 0 9.7 18.3 21.9 56.5 40.6 136.0
08/05 10:20 18.4 27 4.25 -0.9 19 20 1021 0 10.2 18.7 22.8 58.8 43.4 145.7
08/05 10:10 18.2 26 4.04 -1.6 13 15 1021 0 9.8 18.5 22.1 57.2 41.3 138.3
08/05 10:00 18.2 28 4.35 -0.6 13 17 1021.1 0 10.4 18.9 23.1 59.8 44.5 149.8
08/05 09:50 17.9 27 4.12 -1.3 19 22 1021.1 0 10.0 18.7 22.5 58.1 42.3 141.8
08/05 09:40 17.6 26 3.9 -2.1 15 17 1021.2 0 9.5 18.4 21.9 56.4 40.1 134.1
08/05 09:30 17.2 28 4.1 -1.4 17 19 1021.3 0 10.0 18.8 22.6 58.4 42.4 142.2
08/05 09:20 17.1 26 3.78 -2.5 15 17 1021.2 0 9.3 18.4 21.6 55.7 39.1 130.5
08/05 09:10 17.1 30 4.37 -0.6 24 26 1021.1 0 10.5 19.2 23.5 60.8 45.3 152.6
08/05 09:00 16.9 31 4.46 -0.3 20 24 1020.9 0 10.7 19.3 23.8 61.7 46.4 156.3
08/05 08:50 16.6 29 4.1 -1.5 26 30 1021 0 10.0 18.9 22.8 58.8 42.7 143.2
08/05 08:40 16.5 28 3.93 -2 22 26 1021.1 0 9.6 18.7 22.2 57.4 40.9 137.0
08/05 08:30 16.1 31 4.25 -1 20 30 1021 0 10.3 19.2 23.4 60.5 44.6 149.8
08/05 08:20 15.9 33 4.47 -0.3 20 26 1020.9 0 10.8 19.5 24.2 62.6 47.1 158.6
08/05 08:10 15.7 34 4.55 -0.1 22 24 1020.8 0 10.9 19.7 24.5 63.4 48.1 162.1
08/05 08:00 15.3 36 4.7 0.3 15 17 1020.8 0 11.3 20.0 25.1 65.1 50.0 168.7
08/05 07:50 15 41 5.26 1.9 13 15 1020.5 0 12.5 20.8 27.1 70.4 56.5 191.7
08/05 07:40 14.4 46 5.69 2.9 19 20 1020.5 0 13.4 21.5 28.8 75.0 62.0 210.7
08/05 07:30 13.6 52 6.12 3.9 19 20 1020.5 0 14.3 22.4 30.7 79.9 67.7 230.9
08/05 07:20 13.1 57 6.5 4.8 13 17 1020.5 0 15.1 23.1 32.3 84.2 72.8 248.7
08/05 07:10 12 63 6.71 5.2 19 20 1020.3 0 15.6 23.7 33.5 87.5 76.5 261.4
08/05 07:00 11.3 64 6.53 4.7 17 20 1020 0 15.3 23.5 33.1 86.4 74.9 255.6
08/05 06:50 11.1 62 6.25 4.1 15 17 1020 0 14.7 23.2 32.1 83.7 71.5 243.8
08/05 06:40 10.6 63 6.15 3.9 15 19 1020 0 14.5 23.1 31.9 83.2 70.7 240.9
08/05 06:30 10.5 64 6.21 4 17 20 1019.9 0 14.6 23.3 32.2 84.0 71.5 243.9
08/05 06:20 11 60 6.01 3.5 17 19 1019.9 0 14.2 22.8 31.2 81.4 68.6 233.5
08/05 06:10 10.3 64 6.13 3.8 19 22 1019.7 0 14.5 23.2 31.9 83.3 70.7 240.9
08/05 06:00 10.4 63 6.07 3.7 15 19 1019.6 0 14.3 23.1 31.7 82.6 69.8 237.9
08/05 05:50 10.4 64 6.17 3.9 19 22 1019.4 0 14.5 23.2 32.0 83.6 71.1 242.3
08/05 05:40 9.9 69 6.44 4.5 17 20 1019.3 0 15.1 23.7 33.3 86.9 75.0 255.9
08/05 05:30 10.5 64 6.21 4 17 26 1019.2 0 14.6 23.2 32.1 83.9 71.5 243.7
08/05 05:20 10.9 63 6.27 4.1 15 15 1019.1 0 14.7 23.2 32.2 84.1 71.9 245.1
08/05 05:10 11.4 62 6.36 4.4 19 20 1019 0 14.9 23.2 32.4 84.5 72.6 247.5
08/05 05:00 11.4 63 6.47 4.6 20 28 1018.7 0 15.1 23.4 32.8 85.6 73.9 252.3
08/05 04:50 11.4 63 6.47 4.6 17 20 1018.7 0 15.1 23.4 32.8 85.6 73.9 252.3
08/05 04:40 11.9 61 6.46 4.6 17 19 1018.5 0 15.1 23.2 32.5 84.9 73.3 250.3
08/05 04:30 12.5 59 6.49 4.7 19 26 1018.4 0 15.1 23.1 32.4 84.6 73.1 249.7
08/05 04:20 12.3 59 6.41 4.5 19 20 1018.4 0 15.0 23.0 32.2 84.0 72.3 246.8
08/05 04:10 12.2 60 6.48 4.7 20 22 1018.4 0 15.1 23.2 32.5 84.8 73.3 250.2
08/05 04:00 12.1 61 6.54 4.8 20 28 1018.1 0 15.3 23.3 32.7 85.5 74.1 253.1
08/05 03:50 12.3 61 6.62 5 19 22 1018 0 15.4 23.4 32.9 86.0 74.9 255.9
08/05 03:40 12.8 59 6.61 5 19 24 1018 0 15.4 23.2 32.7 85.4 74.3 253.9
08/05 03:30 13.3 57 6.59 5 20 24 1018.1 0 15.3 23.1 32.4 84.7 73.6 251.5
08/05 03:20 13.7 56 6.63 5.1 19 20 1017.9 0 15.4 23.0 32.4 84.6 73.7 251.9
08/05 03:10 13.3 58 6.7 5.2 24 28 1017.8 0 15.6 23.2 32.8 85.8 74.9 256.2
08/05 03:00 14.4 53 6.55 5 20 28 1017.8 0 15.2 22.7 31.8 83.1 72.1 246.3
08/05 02:50 14.3 54 6.63 5.1 19 22 1017.7 0 15.4 22.9 32.2 84.0 73.1 250.0
08/05 02:40 14.6 54 6.76 5.4 22 26 1017.6 0 15.6 23.0 32.5 85.0 74.4 254.6
08/05 02:30 14.7 55 6.92 5.8 20 28 1017.6 0 16.0 23.2 33.1 86.4 76.3 261.2
08/05 02:20 14.2 58 7.08 6.1 22 28 1017.6 0 16.3 23.6 33.9 88.6 78.8 269.8
08/05 02:10 13.6 61 7.18 6.2 19 20 1017.7 0 16.6 23.9 34.5 90.3 80.6 276.2
08/05 02:00 14.1 59 7.16 6.2 20 32 1017.7 0 16.5 23.7 34.2 89.5 79.9 273.6
08/05 01:50 14.3 59 7.25 6.4 19 22 1017.8 0 16.7 23.8 34.5 90.2 80.8 276.9
08/05 01:40 14.5 58 7.21 6.3 19 22 1017.7 0 16.6 23.7 34.2 89.6 80.1 274.4
08/05 01:30 14.6 58 7.26 6.4 20 30 1017.8 0 16.7 23.7 34.4 90.0 80.6 276.3
08/05 01:20 15.2 54 7.01 6 20 24 1017.7 0 16.1 23.2 33.2 86.8 76.9 263.4
08/05 01:10 15.6 53 7.05 6.1 17 19 1017.6 0 16.2 23.2 33.2 86.8 77.0 263.8
08/05 01:00 15.7 53 7.09 6.2 24 32 1017.2 0 16.3 23.2 33.3 87.0 77.4 265.1
08/05 00:50 15.7 53 7.09 6.2 28 32 1017.6 0 16.3 23.2 33.3 87.0 77.4 265.2
08/05 00:40 15.2 54 7.01 6 24 26 1017.6 0 16.1 23.2 33.2 86.8 76.9 263.4
08/05 00:30 16.4 49 6.84 5.7 20 30 1017.7 0 15.7 22.6 32.1 83.9 73.7 252.4
08/05 00:20 16.2 50 6.89 5.8 19 24 1017.6 0 15.8 22.8 32.4 84.6 74.5 255.1
08/05 00:10 16.8 48 6.86 5.7 15 17 1017.7 0 15.8 22.6 32.0 83.6 73.6 251.9
08/05 00:00 17.1 46 6.7 5.4 20 26 1017.4 0 15.4 22.3 31.3 81.8 71.4 244.3
07/05 23:50 17.2 46 6.74 5.5 17 19 1017.6 0 15.5 22.3 31.4 82.1 71.8 245.7
07/05 23:40 17.4 46 6.82 5.7 22 28 1017.4 0 15.7 22.4 31.6 82.6 72.6 248.4
07/05 23:30 17.3 46 6.78 5.6 22 26 1017.5 0 15.6 22.3 31.5 82.3 72.2 247.0
07/05 23:20 17.9 45 6.87 5.8 19 24 1017.6 0 15.7 22.3 31.6 82.6 72.7 248.9
07/05 23:10 18.2 44 6.84 5.8 22 28 1017.5 0 15.7 22.2 31.4 82.0 72.1 246.8
07/05 23:00 18.1 44 6.8 5.7 19 22 1017.7 0 15.6 22.2 31.3 81.7 71.7 245.5
07/05 22:50 18 44 6.76 5.6 17 19 1017.7 0 15.5 22.1 31.2 81.5 71.3 244.1
07/05 22:40 18.1 44 6.8 5.7 20 22 1017.3 0 15.6 22.2 31.3 81.7 71.7 245.4
07/05 22:30 18.5 42 6.64 5.4 30 33 1017.3 0 15.2 21.8 30.6 79.8 69.5 237.7
07/05 22:20 18.6 42 6.68 5.5 22 26 1017.5 0 15.3 21.9 30.7 80.1 69.9 239.1
07/05 22:10 18.9 40 6.48 5 22 26 1017.3 0 14.9 21.5 29.9 77.9 67.3 230.1
07/05 22:00 18.5 42 6.64 5.4 28 32 1017.3 0 15.2 21.8 30.6 79.8 69.5 237.7
07/05 21:50 18.8 41 6.6 5.3 22 26 1017.2 0 15.1 21.7 30.3 79.1 68.8 235.2
07/05 21:40 18.6 41 6.52 5.1 20 24 1017.1 0 15.0 21.6 30.1 78.6 68.0 232.5
07/05 21:30 18.8 40 6.44 4.9 22 26 1017.1 0 14.8 21.5 29.8 77.6 66.9 228.7
07/05 21:20 19.5 38 6.38 4.8 22 30 1017.2 0 14.6 21.2 29.3 76.4 65.7 224.4
07/05 21:10 19.6 38 6.41 4.9 19 24 1017.1 0 14.7 21.2 29.4 76.6 65.9 225.3
07/05 21:00 19.4 40 6.67 5.5 22 28 1016.9 0 15.3 21.7 30.3 79.2 69.0 236.2
07/05 20:50 19.5 39 6.54 5.2 22 24 1016.7 0 15.0 21.4 29.8 77.9 67.5 230.7
07/05 20:40 20 38 6.57 5.3 20 24 1016.6 0 15.0 21.4 29.8 77.7 67.4 230.4
07/05 20:30 19.6 39 6.58 5.3 24 39 1016.5 0 15.1 21.5 29.9 78.1 67.8 232.0
07/05 20:20 20.1 38 6.61 5.4 20 26 1016.3 0 15.1 21.4 29.8 77.9 67.7 231.7
07/05 20:10 20.1 38 6.61 5.4 19 22 1016.3 0 15.1 21.4 29.8 77.9 67.7 231.7

Last Refresh: 08-May-2026 12:09:35

Bureau of Meteorology